Terminal Aerodrome Forecast
Issued by NWS Raleigh/Durham, NC

Home | Current Version | Previous Version | Text Only | Print | Product List | Glossary On
Versions: 1 2 3 4 5 6 7 8 9 10 11 12 13 14 15 16 17 18 19 20 21 22 23 24 25 26 27 28 29 30 31 32 33 34 35 36 37
189
FTUS42 KRAH 121141
TAFGSO
TAF
KGSO 121141Z 1212/1312 07007KT P6SM OVC060
      TEMPO 1215/1218 6SM -SN SCT025 OVC045
     FM122000 22005KT P6SM SCT100
     FM130000 24005KT P6SM OVC050
     FM130500 30009KT P6SM SCT050=

USA.gov is the U.S. government's official web portal to all federal, state and local government web resources and services.